sensor_id;sensor_type;location;lat;lon;timestamp;pressure;altitude;pressure_sealevel;temperature;humidity
3206;BME280;1615;53.602;11.418;2023-04-19T00:02:15;102756.66;;;7.98;100.00
3206;BME280;1615;53.602;11.418;2023-04-19T00:04:40;102761.50;;;7.96;100.00
3206;BME280;1615;53.602;11.418;2023-04-19T00:07:06;102616.41;;;7.02;100.00
3206;BME280;1615;53.602;11.418;2023-04-19T00:09:31;102761.50;;;7.78;100.00
3206;BME280;1615;53.602;11.418;2023-04-19T00:11:57;102757.03;;;7.83;100.00
3206;BME280;1615;53.602;11.418;2023-04-19T00:14:22;102754.69;;;7.87;100.00
3206;BME280;1615;53.602;11.418;2023-04-19T00:16:47;102745.63;;;7.86;100.00
3206;BME280;1615;53.602;11.418;2023-04-19T00:19:13;102722.06;;;7.74;100.00
3206;BME280;1615;53.602;11.418;2023-04-19T00:21:38;102741.25;;;7.85;100.00
3206;BME280;1615;53.602;11.418;2023-04-19T00:24:04;102750.66;;;7.89;100.00
3206;BME280;1615;53.602;11.418;2023-04-19T00:26:29;102745.09;;;7.78;100.00
3206;BME280;1615;53.602;11.418;2023-04-19T00:28:54;102739.22;;;7.81;100.00
3206;BME280;1615;53.602;11.418;2023-04-19T00:31:20;102606.09;;;7.04;100.00
3206;BME280;1615;53.602;11.418;2023-04-19T00:33:45;102737.06;;;7.83;100.00
3206;BME280;1615;53.602;11.418;2023-04-19T00:36:10;102734.59;;;7.81;100.00
3206;BME280;1615;53.602;11.418;2023-04-19T00:38:36;102696.19;;;7.58;100.00
3206;BME280;1615;53.602;11.418;2023-04-19T00:41:01;102731.75;;;7.88;100.00
3206;BME280;1615;53.602;11.418;2023-04-19T00:43:26;102726.53;;;7.86;100.00
3206;BME280;1615;53.602;11.418;2023-04-19T00:45:52;102720.69;;;7.83;100.00
3206;BME280;1615;53.602;11.418;2023-04-19T00:48:20;102720.69;;;7.83;100.00
3206;BME280;1615;53.602;11.418;2023-04-19T00:50:45;102725.72;;;7.86;100.00
3206;BME280;1615;53.602;11.418;2023-04-19T00:53:11;102719.03;;;7.82;100.00
3206;BME280;1615;53.602;11.418;2023-04-19T00:55:39;102727.84;;;7.84;100.00
3206;BME280;1615;53.602;11.418;2023-04-19T00:58:07;102720.69;;;7.83;100.00
3206;BME280;1615;53.602;11.418;2023-04-19T01:00:33;102722.38;;;7.84;100.00
3206;BME280;1615;53.602;11.418;2023-04-19T01:03:02;102727.00;;;7.83;100.00
3206;BME280;1615;53.602;11.418;2023-04-19T01:05:28;102728.28;;;7.81;100.00
3206;BME280;1615;53.602;11.418;2023-04-19T01:07:54;102712.75;;;7.81;100.00
3206;BME280;1615;53.602;11.418;2023-04-19T01:10:19;102726.53;;;7.68;100.00
3206;BME280;1615;53.602;11.418;2023-04-19T01:12:44;102728.03;;;7.64;100.00
3206;BME280;1615;53.602;11.418;2023-04-19T01:15:10;102727.28;;;7.57;100.00
3206;BME280;1615;53.602;11.418;2023-04-19T01:17:36;102729.41;;;7.55;100.00
3206;BME280;1615;53.602;11.418;2023-04-19T01:20:02;102733.75;;;7.38;100.00
3206;BME280;1615;53.602;11.418;2023-04-19T01:22:28;102727.53;;;7.31;100.00
3206;BME280;1615;53.602;11.418;2023-04-19T01:24:55;102719.97;;;7.33;100.00
3206;BME280;1615;53.602;11.418;2023-04-19T01:27:20;102722.91;;;7.32;100.00
3206;BME280;1615;53.602;11.418;2023-04-19T01:29:45;102725.44;;;7.33;100.00
3206;BME280;1615;53.602;11.418;2023-04-19T01:32:11;102730.09;;;7.26;100.00
3206;BME280;1615;53.602;11.418;2023-04-19T01:34:39;102725.91;;;7.24;100.00
3206;BME280;1615;53.602;11.418;2023-04-19T01:37:04;102377.69;;;5.12;100.00
3206;BME280;1615;53.602;11.418;2023-04-19T01:39:30;102723.88;;;7.19;100.00
3206;BME280;1615;53.602;11.418;2023-04-19T01:41:55;102719.66;;;7.23;100.00
3206;BME280;1615;53.602;11.418;2023-04-19T01:44:20;102753.31;;;7.11;100.00
3206;BME280;1615;53.602;11.418;2023-04-19T01:46:46;102731.16;;;7.25;100.00
3206;BME280;1615;53.602;11.418;2023-04-19T01:49:12;102713.34;;;7.23;100.00
3206;BME280;1615;53.602;11.418;2023-04-19T01:51:38;102641.94;;;6.83;100.00
3206;BME280;1615;53.602;11.418;2023-04-19T01:54:03;102710.78;;;7.28;100.00
3206;BME280;1615;53.602;11.418;2023-04-19T01:56:29;102571.41;;;6.51;100.00
3206;BME280;1615;53.602;11.418;2023-04-19T01:58:55;102712.34;;;7.42;100.00
3206;BME280;1615;53.602;11.418;2023-04-19T02:01:20;102702.75;;;7.33;100.00
3206;BME280;1615;53.602;11.418;2023-04-19T02:03:45;102705.28;;;7.34;100.00
3206;BME280;1615;53.602;11.418;2023-04-19T02:06:12;102698.00;;;7.46;100.00
3206;BME280;1615;53.602;11.418;2023-04-19T02:08:38;102701.84;;;7.39;100.00
3206;BME280;1615;53.602;11.418;2023-04-19T02:11:11;102693.41;;;7.47;100.00
3206;BME280;1615;53.602;11.418;2023-04-19T02:13:39;102562.03;;;6.65;100.00
3206;BME280;1615;53.602;11.418;2023-04-19T02:16:04;102510.66;;;6.44;100.00
3206;BME280;1615;53.602;11.418;2023-04-19T02:18:30;102685.03;;;7.42;100.00
3206;BME280;1615;53.602;11.418;2023-04-19T02:20:58;102543.13;;;6.70;100.00
3206;BME280;1615;53.602;11.418;2023-04-19T02:23:24;102676.16;;;7.46;100.00
3206;BME280;1615;53.602;11.418;2023-04-19T02:25:50;102655.41;;;7.45;100.00
3206;BME280;1615;53.602;11.418;2023-04-19T02:28:15;102545.91;;;6.88;100.00
3206;BME280;1615;53.602;11.418;2023-04-19T02:30:40;102669.19;;;7.68;100.00
3206;BME280;1615;53.602;11.418;2023-04-19T02:33:06;102567.56;;;7.01;100.00
3206;BME280;1615;53.602;11.418;2023-04-19T02:35:32;102669.66;;;7.65;100.00
3206;BME280;1615;53.602;11.418;2023-04-19T02:37:59;102468.75;;;6.45;100.00
3206;BME280;1615;53.602;11.418;2023-04-19T02:40:24;102665.94;;;7.60;100.00
3206;BME280;1615;53.602;11.418;2023-04-19T02:42:50;102665.66;;;7.68;100.00
3206;BME280;1615;53.602;11.418;2023-04-19T02:45:16;102658.28;;;7.68;100.00
3206;BME280;1615;53.602;11.418;2023-04-19T02:47:41;102655.19;;;7.65;100.00
3206;BME280;1615;53.602;11.418;2023-04-19T02:50:07;102538.31;;;6.90;100.00
3206;BME280;1615;53.602;11.418;2023-04-19T02:52:33;102653.97;;;7.61;100.00
3206;BME280;1615;53.602;11.418;2023-04-19T02:54:59;102510.28;;;6.83;100.00
3206;BME280;1615;53.602;11.418;2023-04-19T02:57:24;102650.78;;;7.64;100.00
3206;BME280;1615;53.602;11.418;2023-04-19T02:59:49;102647.00;;;7.65;100.00
3206;BME280;1615;53.602;11.418;2023-04-19T03:02:15;102654.97;;;7.66;100.00
3206;BME280;1615;53.602;11.418;2023-04-19T03:04:40;102644.47;;;7.63;100.00
3206;BME280;1615;53.602;11.418;2023-04-19T03:07:08;102645.03;;;7.54;100.00
3206;BME280;1615;53.602;11.418;2023-04-19T03:09:34;102643.81;;;7.50;100.00
3206;BME280;1615;53.602;11.418;2023-04-19T03:11:59;102619.16;;;7.38;100.00
3206;BME280;1615;53.602;11.418;2023-04-19T03:14:25;102479.19;;;6.48;100.00
3206;BME280;1615;53.602;11.418;2023-04-19T03:16:50;102640.16;;;7.38;100.00
3206;BME280;1615;53.602;11.418;2023-04-19T03:19:16;102632.13;;;7.43;100.00
3206;BME280;1615;53.602;11.418;2023-04-19T03:21:41;102628.34;;;7.44;100.00
3206;BME280;1615;53.602;11.418;2023-04-19T03:24:07;102628.34;;;7.44;100.00
3206;BME280;1615;53.602;11.418;2023-04-19T03:26:32;102615.75;;;7.43;100.00
3206;BME280;1615;53.602;11.418;2023-04-19T03:28:57;102597.06;;;7.28;100.00
3206;BME280;1615;53.602;11.418;2023-04-19T03:31:23;102618.03;;;7.46;100.00
3206;BME280;1615;53.602;11.418;2023-04-19T03:33:48;102615.63;;;7.38;100.00
3206;BME280;1615;53.602;11.418;2023-04-19T03:36:13;102612.28;;;7.36;100.00
3206;BME280;1615;53.602;11.418;2023-04-19T03:38:39;102610.53;;;7.41;100.00
3206;BME280;1615;53.602;11.418;2023-04-19T03:41:05;102611.38;;;7.42;100.00
3206;BME280;1615;53.602;11.418;2023-04-19T03:43:41;102621.22;;;7.43;100.00
3206;BME280;1615;53.602;11.418;2023-04-19T03:46:07;102612.81;;;7.44;100.00
3206;BME280;1615;53.602;11.418;2023-04-19T03:48:32;102610.69;;;7.46;100.00
3206;BME280;1615;53.602;11.418;2023-04-19T03:50:59;102606.94;;;7.41;100.00
3206;BME280;1615;53.602;11.418;2023-04-19T03:53:25;102604.84;;;7.43;100.00
3206;BME280;1615;53.602;11.418;2023-04-19T03:55:50;102608.66;;;7.42;100.00
3206;BME280;1615;53.602;11.418;2023-04-19T03:58:16;102605.75;;;7.37;100.00
3206;BME280;1615;53.602;11.418;2023-04-19T04:00:41;102600.28;;;7.55;100.00
3206;BME280;1615;53.602;11.418;2023-04-19T04:03:06;102607.88;;;7.53;100.00
3206;BME280;1615;53.602;11.418;2023-04-19T04:05:33;102603.19;;;7.42;100.00
3206;BME280;1615;53.602;11.418;2023-04-19T04:07:59;102607.56;;;7.61;100.00
3206;BME280;1615;53.602;11.418;2023-04-19T04:10:24;102602.94;;;7.61;100.00
3206;BME280;1615;53.602;11.418;2023-04-19T04:12:49;102602.56;;;7.58;100.00
3206;BME280;1615;53.602;11.418;2023-04-19T04:15:15;102576.50;;;7.26;100.00
3206;BME280;1615;53.602;11.418;2023-04-19T04:17:40;102603.19;;;7.42;100.00
3206;BME280;1615;53.602;11.418;2023-04-19T04:20:06;102606.13;;;7.40;100.00
3206;BME280;1615;53.602;11.418;2023-04-19T04:22:32;102597.13;;;7.58;100.00
3206;BME280;1615;53.602;11.418;2023-04-19T04:24:58;102602.47;;;7.64;100.00
3206;BME280;1615;53.602;11.418;2023-04-19T04:27:25;102603.75;;;7.62;100.00
3206;BME280;1615;53.602;11.418;2023-04-19T04:29:50;102600.00;;;7.63;100.00
3206;BME280;1615;53.602;11.418;2023-04-19T04:32:15;102437.75;;;6.64;100.00
3206;BME280;1615;53.602;11.418;2023-04-19T04:34:42;102599.28;;;7.67;100.00
3206;BME280;1615;53.602;11.418;2023-04-19T04:37:08;102602.56;;;7.58;100.00
3206;BME280;1615;53.602;11.418;2023-04-19T04:39:33;102614.81;;;7.67;100.00
3206;BME280;1615;53.602;11.418;2023-04-19T04:42:03;102588.91;;;7.76;100.00
3206;BME280;1615;53.602;11.418;2023-04-19T04:44:29;102596.16;;;7.82;100.00
3206;BME280;1615;53.602;11.418;2023-04-19T04:46:55;102585.16;;;7.88;100.00
3206;BME280;1615;53.602;11.418;2023-04-19T04:49:20;102467.41;;;7.08;100.00
3206;BME280;1615;53.602;11.418;2023-04-19T04:51:46;102566.13;;;7.82;100.00
3206;BME280;1615;53.602;11.418;2023-04-19T04:54:11;102598.88;;;8.00;100.00
3206;BME280;1615;53.602;11.418;2023-04-19T04:56:36;102603.63;;;8.04;100.00
3206;BME280;1615;53.602;11.418;2023-04-19T04:59:02;102594.13;;;8.07;100.00
3206;BME280;1615;53.602;11.418;2023-04-19T05:01:27;102595.56;;;8.09;100.00
3206;BME280;1615;53.602;11.418;2023-04-19T05:03:52;102601.84;;;8.10;100.00
3206;BME280;1615;53.602;11.418;2023-04-19T05:06:18;101975.25;;;4.53;100.00
3206;BME280;1615;53.602;11.418;2023-04-19T05:08:44;102458.94;;;7.45;100.00
3206;BME280;1615;53.602;11.418;2023-04-19T05:11:09;102585.38;;;8.16;100.00
3206;BME280;1615;53.602;11.418;2023-04-19T05:13:35;102456.66;;;7.42;100.00
3206;BME280;1615;53.602;11.418;2023-04-19T05:16:00;102593.50;;;8.34;100.00
3206;BME280;1615;53.602;11.418;2023-04-19T05:18:26;102573.00;;;8.32;100.00
3206;BME280;1615;53.602;11.418;2023-04-19T05:20:56;102600.09;;;8.45;100.00
3206;BME280;1615;53.602;11.418;2023-04-19T05:23:22;102589.19;;;8.56;100.00
3206;BME280;1615;53.602;11.418;2023-04-19T05:25:47;102585.97;;;8.59;100.00
3206;BME280;1615;53.602;11.418;2023-04-19T05:28:12;102579.81;;;8.64;100.00
3206;BME280;1615;53.602;11.418;2023-04-19T05:30:38;102584.06;;;8.71;100.00
3206;BME280;1615;53.602;11.418;2023-04-19T05:33:03;102591.22;;;8.84;100.00
3206;BME280;1615;53.602;11.418;2023-04-19T05:35:29;102547.09;;;8.69;100.00
3206;BME280;1615;53.602;11.418;2023-04-19T05:37:54;102563.88;;;8.84;100.00
3206;BME280;1615;53.602;11.418;2023-04-19T05:40:20;102574.81;;;8.95;100.00
3206;BME280;1615;53.602;11.418;2023-04-19T05:42:47;102587.41;;;8.96;100.00
3206;BME280;1615;53.602;11.418;2023-04-19T05:45:13;102587.66;;;8.95;100.00
3206;BME280;1615;53.602;11.418;2023-04-19T05:47:39;102546.38;;;8.62;100.00
3206;BME280;1615;53.602;11.418;2023-04-19T05:50:05;102580.63;;;8.99;100.00
3206;BME280;1615;53.602;11.418;2023-04-19T05:52:31;102553.28;;;8.87;100.00
3206;BME280;1615;53.602;11.418;2023-04-19T05:54:57;102584.41;;;9.21;100.00
3206;BME280;1615;53.602;11.418;2023-04-19T05:57:22;102585.16;;;9.05;100.00
3206;BME280;1615;53.602;11.418;2023-04-19T05:59:50;102585.28;;;9.10;100.00
3206;BME280;1615;53.602;11.418;2023-04-19T06:02:15;102577.97;;;9.27;100.00
3206;BME280;1615;53.602;11.418;2023-04-19T06:04:41;102589.03;;;9.32;100.00
3206;BME280;1615;53.602;11.418;2023-04-19T06:07:06;102520.47;;;8.99;100.00
3206;BME280;1615;53.602;11.418;2023-04-19T06:09:32;102585.09;;;9.39;100.00
3206;BME280;1615;53.602;11.418;2023-04-19T06:11:57;102588.19;;;9.43;100.00
3206;BME280;1615;53.602;11.418;2023-04-19T06:14:23;102584.53;;;9.37;100.00
3206;BME280;1615;53.602;11.418;2023-04-19T06:16:48;102585.50;;;9.31;100.00
3206;BME280;1615;53.602;11.418;2023-04-19T06:19:14;102404.75;;;8.36;100.00
3206;BME280;1615;53.602;11.418;2023-04-19T06:21:39;102612.72;;;9.38;100.00
3206;BME280;1615;53.602;11.418;2023-04-19T06:24:05;102564.06;;;9.40;100.00
3206;BME280;1615;53.602;11.418;2023-04-19T06:26:31;102504.84;;;9.11;100.00
3206;BME280;1615;53.602;11.418;2023-04-19T06:28:56;102584.34;;;9.67;100.00
3206;BME280;1615;53.602;11.418;2023-04-19T06:31:22;102589.56;;;9.68;100.00
3206;BME280;1615;53.602;11.418;2023-04-19T06:33:47;102590.50;;;9.74;100.00
3206;BME280;1615;53.602;11.418;2023-04-19T06:36:13;102589.31;;;9.70;100.00
3206;BME280;1615;53.602;11.418;2023-04-19T06:38:38;102586.78;;;9.80;100.00
3206;BME280;1615;53.602;11.418;2023-04-19T06:41:05;102579.75;;;9.84;100.00
3206;BME280;1615;53.602;11.418;2023-04-19T06:43:30;102584.56;;;9.93;100.00
3206;BME280;1615;53.602;11.418;2023-04-19T06:46:00;102583.88;;;9.98;100.00
3206;BME280;1615;53.602;11.418;2023-04-19T06:48:25;102586.69;;;10.03;100.00
3206;BME280;1615;53.602;11.418;2023-04-19T06:50:52;102476.81;;;9.32;100.00
3206;BME280;1615;53.602;11.418;2023-04-19T06:53:17;102580.63;;;10.01;100.00
3206;BME280;1615;53.602;11.418;2023-04-19T06:55:43;102572.72;;;10.16;100.00
3206;BME280;1615;53.602;11.418;2023-04-19T06:58:09;102532.06;;;9.68;100.00
3206;BME280;1615;53.602;11.418;2023-04-19T07:00:35;102578.44;;;10.14;100.00
3206;BME280;1615;53.602;11.418;2023-04-19T07:03:01;102569.22;;;10.20;100.00
3206;BME280;1615;53.602;11.418;2023-04-19T07:05:26;102565.72;;;10.08;100.00
3206;BME280;1615;53.602;11.418;2023-04-19T07:07:52;102567.69;;;10.41;100.00
3206;BME280;1615;53.602;11.418;2023-04-19T07:10:17;102458.66;;;9.82;100.00
3206;BME280;1615;53.602;11.418;2023-04-19T07:12:42;102505.44;;;10.08;100.00
3206;BME280;1615;53.602;11.418;2023-04-19T07:15:08;102560.78;;;10.38;100.00
3206;BME280;1615;53.602;11.418;2023-04-19T07:17:34;102407.84;;;9.46;100.00
3206;BME280;1615;53.602;11.418;2023-04-19T07:20:01;102550.25;;;10.47;100.00
3206;BME280;1615;53.602;11.418;2023-04-19T07:22:26;102545.50;;;10.59;100.00
3206;BME280;1615;53.602;11.418;2023-04-19T07:24:52;102554.81;;;10.58;100.00
3206;BME280;1615;53.602;11.418;2023-04-19T07:27:18;102545.25;;;10.44;100.00
3206;BME280;1615;53.602;11.418;2023-04-19T07:29:43;102544.44;;;10.43;100.00
3206;BME280;1615;53.602;11.418;2023-04-19T07:32:09;102553.22;;;10.62;99.67
3206;BME280;1615;53.602;11.418;2023-04-19T07:34:36;102048.03;;;7.72;98.52
3206;BME280;1615;53.602;11.418;2023-04-19T07:37:02;102533.34;;;10.71;97.99
3206;BME280;1615;53.602;11.418;2023-04-19T07:39:27;102535.41;;;10.81;97.77
3206;BME280;1615;53.602;11.418;2023-04-19T07:41:54;102532.66;;;10.97;99.69
3206;BME280;1615;53.602;11.418;2023-04-19T07:44:20;102490.78;;;11.07;97.05
3206;BME280;1615;53.602;11.418;2023-04-19T07:46:46;102511.50;;;10.98;95.93
3206;BME280;1615;53.602;11.418;2023-04-19T07:49:11;102520.63;;;11.20;96.28
3206;BME280;1615;53.602;11.418;2023-04-19T07:51:36;102528.19;;;11.13;96.60
3206;BME280;1615;53.602;11.418;2023-04-19T07:54:01;102514.03;;;11.21;96.41
3206;BME280;1615;53.602;11.418;2023-04-19T07:56:27;102342.56;;;10.21;96.05
3206;BME280;1615;53.602;11.418;2023-04-19T07:58:52;102520.72;;;11.30;96.04
3206;BME280;1615;53.602;11.418;2023-04-19T08:01:18;102508.09;;;11.29;95.86
3206;BME280;1615;53.602;11.418;2023-04-19T08:03:43;102513.72;;;11.39;95.60
3206;BME280;1615;53.602;11.418;2023-04-19T08:06:08;102525.78;;;11.38;95.06
3206;BME280;1615;53.602;11.418;2023-04-19T08:08:35;102521.69;;;11.40;94.77
3206;BME280;1615;53.602;11.418;2023-04-19T08:11:01;102503.25;;;11.36;93.24
3206;BME280;1615;53.602;11.418;2023-04-19T08:13:27;102522.31;;;11.47;93.87
3206;BME280;1615;53.602;11.418;2023-04-19T08:15:52;102585.25;;;11.49;93.85
3206;BME280;1615;53.602;11.418;2023-04-19T08:18:18;102511.00;;;11.60;91.90
3206;BME280;1615;53.602;11.418;2023-04-19T08:20:45;102497.97;;;11.56;89.07
3206;BME280;1615;53.602;11.418;2023-04-19T08:23:10;102511.16;;;11.54;88.46
3206;BME280;1615;53.602;11.418;2023-04-19T08:25:37;102502.03;;;11.70;88.11
3206;BME280;1615;53.602;11.418;2023-04-19T08:28:03;102505.59;;;11.70;87.08
3206;BME280;1615;53.602;11.418;2023-04-19T08:30:28;102528.41;;;11.71;85.57
3206;BME280;1615;53.602;11.418;2023-04-19T08:32:53;102496.53;;;11.70;85.21
3206;BME280;1615;53.602;11.418;2023-04-19T08:35:20;102471.59;;;11.76;83.90
3206;BME280;1615;53.602;11.418;2023-04-19T08:37:45;102493.22;;;11.68;85.76
3206;BME280;1615;53.602;11.418;2023-04-19T08:40:12;102496.16;;;11.88;84.31
3206;BME280;1615;53.602;11.418;2023-04-19T08:42:38;102464.53;;;11.85;80.66
3206;BME280;1615;53.602;11.418;2023-04-19T08:45:04;102466.91;;;12.03;80.30
3206;BME280;1615;53.602;11.418;2023-04-19T08:47:32;102467.22;;;12.07;76.49
3206;BME280;1615;53.602;11.418;2023-04-19T08:49:59;102463.47;;;11.91;76.48
3206;BME280;1615;53.602;11.418;2023-04-19T08:52:26;102466.66;;;12.10;77.18
3206;BME280;1615;53.602;11.418;2023-04-19T08:54:53;102471.75;;;12.23;76.34
3206;BME280;1615;53.602;11.418;2023-04-19T08:57:19;102471.75;;;12.23;70.95
3206;BME280;1615;53.602;11.418;2023-04-19T08:59:44;102468.66;;;12.14;63.27
3206;BME280;1615;53.602;11.418;2023-04-19T09:02:13;102468.31;;;12.06;64.28
3206;BME280;1615;53.602;11.418;2023-04-19T09:04:39;102465.19;;;12.29;66.06
3206;BME280;1615;53.602;11.418;2023-04-19T09:07:05;102468.75;;;12.24;63.72
3206;BME280;1615;53.602;11.418;2023-04-19T09:09:32;102470.59;;;12.19;61.39
3206;BME280;1615;53.602;11.418;2023-04-19T09:11:57;102455.03;;;12.29;60.66
3206;BME280;1615;53.602;11.418;2023-04-19T09:14:24;102454.44;;;12.27;61.97
3206;BME280;1615;53.602;11.418;2023-04-19T09:16:50;102403.56;;;11.88;63.23
3206;BME280;1615;53.602;11.418;2023-04-19T09:19:18;102440.78;;;12.37;62.49
3206;BME280;1615;53.602;11.418;2023-04-19T09:21:45;102442.16;;;12.40;62.70
3206;BME280;1615;53.602;11.418;2023-04-19T09:24:10;102432.53;;;12.37;62.16
3206;BME280;1615;53.602;11.418;2023-04-19T09:26:36;102443.34;;;12.49;60.55
3206;BME280;1615;53.602;11.418;2023-04-19T09:29:04;102412.47;;;12.42;60.20
3206;BME280;1615;53.602;11.418;2023-04-19T09:31:31;102433.78;;;12.61;62.08
3206;BME280;1615;53.602;11.418;2023-04-19T09:33:57;102425.66;;;12.40;61.39
3206;BME280;1615;53.602;11.418;2023-04-19T09:36:36;102425.88;;;12.33;60.13
3206;BME280;1615;53.602;11.418;2023-04-19T09:39:01;102371.69;;;12.29;59.78
3206;BME280;1615;53.602;11.418;2023-04-19T09:41:26;102420.31;;;12.65;56.95
3206;BME280;1615;53.602;11.418;2023-04-19T09:43:52;102416.47;;;12.66;55.88
3206;BME280;1615;53.602;11.418;2023-04-19T09:46:32;102416.16;;;12.57;54.77
3206;BME280;1615;53.602;11.418;2023-04-19T09:51:54;102419.25;;;12.71;53.27
3206;BME280;1615;53.602;11.418;2023-04-19T09:54:22;102404.03;;;12.58;51.66
3206;BME280;1615;53.602;11.418;2023-04-19T09:56:49;102414.03;;;12.74;54.70
3206;BME280;1615;53.602;11.418;2023-04-19T09:59:15;102390.31;;;12.63;55.47
3206;BME280;1615;53.602;11.418;2023-04-19T10:01:47;102397.25;;;12.71;53.46
3206;BME280;1615;53.602;11.418;2023-04-19T10:04:14;102280.78;;;12.04;52.70
3206;BME280;1615;53.602;11.418;2023-04-19T10:06:52;102378.13;;;12.49;53.80
3206;BME280;1615;53.602;11.418;2023-04-19T10:09:19;102318.22;;;12.10;52.93
3206;BME280;1615;53.602;11.418;2023-04-19T10:11:52;102405.28;;;12.36;52.78
3206;BME280;1615;53.602;11.418;2023-04-19T10:14:21;102379.97;;;12.34;52.30
3206;BME280;1615;53.602;11.418;2023-04-19T10:16:49;102191.56;;;11.33;55.32
3206;BME280;1615;53.602;11.418;2023-04-19T10:19:17;102374.34;;;12.60;57.02
3206;BME280;1615;53.602;11.418;2023-04-19T10:21:43;102384.53;;;12.60;56.68
3206;BME280;1615;53.602;11.418;2023-04-19T10:24:12;102358.28;;;12.42;56.21
3206;BME280;1615;53.602;11.418;2023-04-19T10:27:09;102381.31;;;12.83;55.99
3206;BME280;1615;53.602;11.418;2023-04-19T10:30:00;102378.53;;;12.73;54.64
3206;BME280;1615;53.602;11.418;2023-04-19T10:32:41;102376.25;;;12.55;54.32
3206;BME280;1615;53.602;11.418;2023-04-19T10:38:08;102365.81;;;12.62;54.73
3206;BME280;1615;53.602;11.418;2023-04-19T10:40:53;102381.25;;;12.68;55.78
3206;BME280;1615;53.602;11.418;2023-04-19T10:43:23;102375.13;;;12.51;54.99
3206;BME280;1615;53.602;11.418;2023-04-19T10:45:49;102356.22;;;12.69;59.03
3206;BME280;1615;53.602;11.418;2023-04-19T10:51:10;102362.22;;;12.56;57.76
3206;BME280;1615;53.602;11.418;2023-04-19T10:53:43;102353.22;;;12.71;56.85
3206;BME280;1615;53.602;11.418;2023-04-19T10:56:10;102359.16;;;12.48;55.38
3206;BME280;1615;53.602;11.418;2023-04-19T11:06:37;102334.50;;;12.78;57.93
3206;BME280;1615;53.602;11.418;2023-04-19T11:09:03;102337.38;;;12.98;59.27
3206;BME280;1615;53.602;11.418;2023-04-19T11:11:36;102319.59;;;12.69;56.48
3206;BME280;1615;53.602;11.418;2023-04-19T11:14:02;102329.88;;;12.83;57.28
3206;BME280;1615;53.602;11.418;2023-04-19T11:16:29;102332.28;;;12.70;59.58
3206;BME280;1615;53.602;11.418;2023-04-19T11:18:57;102321.84;;;12.77;57.27
3206;BME280;1615;53.602;11.418;2023-04-19T11:21:23;102318.03;;;12.83;52.55
3206;BME280;1615;53.602;11.418;2023-04-19T11:24:04;102205.00;;;12.18;49.62
3206;BME280;1615;53.602;11.418;2023-04-19T11:26:30;102331.81;;;12.88;51.78
3206;BME280;1615;53.602;11.418;2023-04-19T11:28:55;102307.66;;;13.05;55.51
3206;BME280;1615;53.602;11.418;2023-04-19T11:31:21;102304.88;;;13.00;54.94
3206;BME280;1615;53.602;11.418;2023-04-19T11:33:47;102310.41;;;13.15;53.31
3206;BME280;1615;53.602;11.418;2023-04-19T11:36:12;102304.38;;;13.08;50.80
3206;BME280;1615;53.602;11.418;2023-04-19T11:38:38;102310.97;;;13.02;48.64
3206;BME280;1615;53.602;11.418;2023-04-19T11:41:03;102310.97;;;13.02;45.37
3206;BME280;1615;53.602;11.418;2023-04-19T11:43:35;102312.06;;;13.16;44.54
3206;BME280;1615;53.602;11.418;2023-04-19T11:46:04;102235.41;;;12.73;47.73
3206;BME280;1615;53.602;11.418;2023-04-19T11:48:31;102297.19;;;13.02;45.78
3206;BME280;1615;53.602;11.418;2023-04-19T11:50:57;102328.00;;;12.99;43.88
3206;BME280;1615;53.602;11.418;2023-04-19T11:53:24;102294.44;;;13.02;43.77
3206;BME280;1615;53.602;11.418;2023-04-19T12:01:10;102304.38;;;13.18;43.08
3206;BME280;1615;53.602;11.418;2023-04-19T12:03:52;102294.75;;;13.20;43.47
3206;BME280;1615;53.602;11.418;2023-04-19T12:06:23;102281.50;;;13.12;44.95
3206;BME280;1615;53.602;11.418;2023-04-19T12:08:49;102264.16;;;13.07;43.67
3206;BME280;1615;53.602;11.418;2023-04-19T12:11:17;102292.53;;;13.17;43.86
3206;BME280;1615;53.602;11.418;2023-04-19T12:16:37;102252.88;;;13.33;46.15
3206;BME280;1615;53.602;11.418;2023-04-19T12:19:13;102254.25;;;13.41;45.30
3206;BME280;1615;53.602;11.418;2023-04-19T12:21:41;102281.81;;;13.36;45.95
3206;BME280;1615;53.602;11.418;2023-04-19T12:24:07;102224.50;;;13.08;47.30
3206;BME280;1615;53.602;11.418;2023-04-19T12:26:33;102293.38;;;13.63;46.62
3206;BME280;1615;53.602;11.418;2023-04-19T12:28:59;102284.28;;;13.37;46.49
3206;BME280;1615;53.602;11.418;2023-04-19T12:31:26;102286.22;;;13.42;46.37
3206;BME280;1615;53.602;11.418;2023-04-19T12:33:51;102297.19;;;13.17;45.39
3206;BME280;1615;53.602;11.418;2023-04-19T12:36:17;102285.66;;;13.30;43.60
3206;BME280;1615;53.602;11.418;2023-04-19T12:38:43;102296.13;;;13.23;39.93
3206;BME280;1615;53.602;11.418;2023-04-19T12:41:08;102266.38;;;13.50;39.16
3206;BME280;1615;53.602;11.418;2023-04-19T12:43:34;102273.25;;;13.62;37.99
3206;BME280;1615;53.602;11.418;2023-04-19T12:46:00;102217.59;;;13.35;37.60
3206;BME280;1615;53.602;11.418;2023-04-19T12:48:26;102270.53;;;13.57;37.64
3206;BME280;1615;53.602;11.418;2023-04-19T12:50:52;102272.97;;;13.59;37.75
3206;BME280;1615;53.602;11.418;2023-04-19T12:53:17;102265.81;;;13.63;39.16
3206;BME280;1615;53.602;11.418;2023-04-19T12:55:43;102220.66;;;13.39;38.80
3206;BME280;1615;53.602;11.418;2023-04-19T12:58:13;102269.94;;;13.50;38.50
3206;BME280;1615;53.602;11.418;2023-04-19T13:00:39;102276.28;;;13.31;37.73
3206;BME280;1615;53.602;11.418;2023-04-19T13:03:04;102268.28;;;13.19;38.00
3206;BME280;1615;53.602;11.418;2023-04-19T13:05:29;102272.13;;;13.03;37.21
3206;BME280;1615;53.602;11.418;2023-04-19T13:07:55;102287.00;;;13.12;37.59
3206;BME280;1615;53.602;11.418;2023-04-19T13:10:20;102170.66;;;12.30;37.84
3206;BME280;1615;53.602;11.418;2023-04-19T13:12:46;102227.44;;;12.76;38.40
3206;BME280;1615;53.602;11.418;2023-04-19T13:15:11;102243.22;;;13.21;38.63
3206;BME280;1615;53.602;11.418;2023-04-19T13:17:36;102257.00;;;13.31;39.16
3206;BME280;1615;53.602;11.418;2023-04-19T13:20:02;102170.75;;;12.70;39.18
3206;BME280;1615;53.602;11.418;2023-04-19T13:22:28;102245.97;;;13.21;38.64